Lochearnhead, United Kingdom
Current Conditions -  °F | °C
As of 6:20 AM on Monday 22 Dec 2014 (Local Time) from EGPF Reporting Station
Light Rain Light Rain  
Wind Chill:   Ceiling: 3800
Heat Index:   Visibility: 6mi
Dew Point:   Wind: 9mph
Humidity: 93%   Direction: 220°SW
Pressure: 29.59"   Gusts: NA
Location:  56.39°N, 4.29°W
Report Text: EGPF 220620Z AUTO 22008KT 9999 -RA FEW016/// BKN038/// //////TCU 08/07 Q1002
Loading
Personal Weather Stations






























Interactive Weather Map New forecast layout! Learn more

10-Day Weather Forecast

Advertisements
Track Severe Weather on mobile